Rakov, Belarus
Current Conditions -  °F | °C
As of 8:00 AM on Saturday 29 Nov 2014 (Local Time) from UMMM Reporting Station
Clear Clear  
Wind Chill:   Ceiling: Unl
Heat Index: 16°   Visibility: 6mi
Dew Point: 14°   Wind: 4mph
Humidity: 93%   Direction: 10°N
Pressure: 30.45"   Gusts: NA
Location:  53.97°N, 27.07°E
Report Text: UMMM 290600Z 01002MPS CAVOK M09/M10 Q1031 R30/920245 NOSIG RMKQFE754
Loading
Personal Weather Stations






























Interactive Weather Map New forecast layout! Learn more

10-Day Weather Forecast

Advertisements
Track Severe Weather on mobile